Time;durP1;ratioP1;P1;durP2;ratioP2;P2;SDS_P1;SDS_P2;PMS_P1;PMS_P2;Temp;Humidity;BMP_temperature;BMP_pressure;BME280_temperature;BME280_humidity;BME280_pressure;Samples;Min_cycle;Max_cycle;Signal;HPM_P1;HPM_P2
2023/12/31 00:00:40;;;;;;;7.43;3.95;;;5.60;99.90;;;;;;5003853;28;20116;-61
2023/12/31 00:03:06;;;;;;;13.43;4.82;;;5.60;99.90;;;;;;4987687;28;20516;-59
2023/12/31 00:05:33;;;;;;;12.75;5.00;;;5.50;99.90;;;;;;5004039;28;20048;-60
2023/12/31 00:07:58;;;;;;;8.63;3.70;;;5.50;99.90;;;;;;5003267;28;20026;-61
2023/12/31 00:10:24;;;;;;;7.50;4.18;;;5.50;99.90;;;;;;4999737;28;20037;-61
2023/12/31 00:12:49;;;;;;;6.65;3.50;;;5.50;99.90;;;;;;5003459;28;20026;-61
2023/12/31 00:15:15;;;;;;;8.60;4.20;;;5.40;99.90;;;;;;5006242;28;20044;-60
2023/12/31 00:17:41;;;;;;;10.63;4.30;;;5.40;99.90;;;;;;5005590;28;20087;-61
2023/12/31 00:20:07;;;;;;;7.30;3.83;;;5.40;99.90;;;;;;5002325;28;20041;-60
2023/12/31 00:22:32;;;;;;;4.75;3.40;;;5.30;99.90;;;;;;5004818;28;20045;-61
2023/12/31 00:24:58;;;;;;;7.22;4.50;;;5.30;99.90;;;;;;4999692;28;20042;-61
2023/12/31 00:27:23;;;;;;;8.60;4.10;;;5.30;99.90;;;;;;5002600;28;20041;-62
2023/12/31 00:29:49;;;;;;;5.53;3.55;;;5.30;99.90;;;;;;5001428;28;20026;-62
2023/12/31 00:32:16;;;;;;;4.97;3.38;;;5.30;99.90;;;;;;5005819;28;20034;-61
2023/12/31 00:34:42;;;;;;;6.40;3.70;;;5.20;99.90;;;;;;5001378;28;20061;-61
2023/12/31 00:37:07;;;;;;;8.00;3.58;;;5.20;99.90;;;;;;5004569;28;20119;-61
2023/12/31 00:39:33;;;;;;;7.95;3.70;;;5.20;99.90;;;;;;5004547;28;20040;-61
2023/12/31 00:42:01;;;;;;;10.18;3.53;;;5.20;99.90;;;;;;5000911;28;20033;-61
2023/12/31 00:44:27;;;;;;;9.25;3.78;;;5.10;99.90;;;;;;5001619;28;20077;-61
2023/12/31 00:46:53;;;;;;;11.70;4.10;;;5.10;99.90;;;;;;5002028;28;20065;-61
2023/12/31 00:49:18;;;;;;;15.65;4.47;;;5.10;99.90;;;;;;5002812;28;20044;-62
2023/12/31 00:51:44;;;;;;;7.30;3.35;;;5.10;99.90;;;;;;5004202;28;20486;-61
2023/12/31 00:54:10;;;;;;;7.90;3.80;;;5.10;99.90;;;;;;5006522;28;20100;-60
2023/12/31 00:56:36;;;;;;;6.90;3.45;;;5.10;99.90;;;;;;5003430;28;20168;-61
2023/12/31 00:59:03;;;;;;;8.40;3.45;;;5.10;99.90;;;;;;5006973;28;20026;-61
2023/12/31 01:01:29;;;;;;;7.25;3.50;;;5.10;99.90;;;;;;5005340;28;20030;-60
2023/12/31 01:03:54;;;;;;;7.25;3.67;;;5.00;99.90;;;;;;5000500;28;20030;-61
2023/12/31 01:06:20;;;;;;;7.28;4.07;;;5.00;99.90;;;;;;5005627;28;20025;-61
2023/12/31 01:08:46;;;;;;;10.55;3.97;;;5.00;99.90;;;;;;5002263;28;20112;-61
2023/12/31 01:11:11;;;;;;;10.30;4.65;;;4.90;99.90;;;;;;5002322;28;20465;-61
2023/12/31 01:13:37;;;;;;;7.00;4.05;;;4.90;99.90;;;;;;4994675;28;20032;-60
2023/12/31 01:16:04;;;;;;;8.93;4.10;;;4.90;99.90;;;;;;5000623;28;20073;-61
2023/12/31 01:18:29;;;;;;;9.27;4.20;;;4.90;99.90;;;;;;5003844;28;20479;-61
2023/12/31 01:20:55;;;;;;;6.85;3.72;;;4.90;99.90;;;;;;5001501;28;20045;-61
2023/12/31 01:23:21;;;;;;;6.63;4.00;;;4.90;99.90;;;;;;5006609;28;20041;-60
2023/12/31 01:25:46;;;;;;;5.85;3.00;;;4.90;99.90;;;;;;4998864;28;20168;-60
2023/12/31 01:28:12;;;;;;;6.43;3.30;;;4.90;99.90;;;;;;5001710;28;20037;-61
2023/12/31 01:30:37;;;;;;;10.80;4.32;;;4.90;99.90;;;;;;5002974;28;20034;-61
2023/12/31 01:33:03;;;;;;;7.80;3.92;;;4.90;99.90;;;;;;4999610;28;20513;-61
2023/12/31 01:35:29;;;;;;;7.20;3.80;;;4.90;99.90;;;;;;5003511;28;20026;-61
2023/12/31 01:37:54;;;;;;;7.57;3.25;;;4.90;99.90;;;;;;5001330;28;20037;-61
2023/12/31 01:40:20;;;;;;;9.10;3.90;;;4.90;99.90;;;;;;5002038;28;20030;-61
2023/12/31 01:42:46;;;;;;;4.80;3.22;;;4.90;99.90;;;;;;5007249;28;20026;-61
2023/12/31 01:45:11;;;;;;;10.68;3.50;;;4.90;99.90;;;;;;4999163;28;20052;-62
2023/12/31 01:47:38;;;;;;;10.63;3.80;;;4.90;99.90;;;;;;5001920;28;20060;-61
2023/12/31 01:50:04;;;;;;;5.25;3.05;;;4.90;99.90;;;;;;5001115;28;20506;-58
2023/12/31 01:52:32;;;;;;;7.20;3.50;;;4.90;99.90;;;;;;5000017;28;20475;-60
2023/12/31 01:55:01;;;;;;;6.60;3.45;;;4.90;99.90;;;;;;5002861;28;20370;-61
2023/12/31 01:57:29;;;;;;;7.63;3.28;;;4.90;99.90;;;;;;5009052;28;20091;-61
2023/12/31 01:59:56;;;;;;;4.25;3.03;;;4.90;99.90;;;;;;5004174;28;20042;-60
2023/12/31 02:02:24;;;;;;;8.93;3.47;;;4.80;99.90;;;;;;5002992;28;20045;-60
2023/12/31 02:04:51;;;;;;;7.13;3.38;;;4.80;99.90;;;;;;5004051;28;20040;-61
2023/12/31 02:07:17;;;;;;;6.20;3.33;;;4.80;99.90;;;;;;5007525;28;20448;-61
2023/12/31 02:09:43;;;;;;;3.55;2.42;;;4.90;99.90;;;;;;5005189;28;20141;-61
2023/12/31 02:12:09;;;;;;;6.28;3.38;;;4.90;99.90;;;;;;5005997;28;20054;-61
2023/12/31 02:14:34;;;;;;;4.60;2.55;;;4.90;99.90;;;;;;5003246;28;20637;-61
2023/12/31 02:17:00;;;;;;;16.55;3.67;;;4.90;99.90;;;;;;5006264;28;20033;-62
2023/12/31 02:19:25;;;;;;;40.83;22.73;;;4.90;99.90;;;;;;5006977;28;20500;-61
2023/12/31 02:21:51;;;;;;;13.00;9.25;;;4.90;99.90;;;;;;5003475;28;20487;-61
2023/12/31 02:24:19;;;;;;;6.03;3.72;;;5.00;99.90;;;;;;5005104;28;20061;-61
2023/12/31 02:26:45;;;;;;;4.57;3.28;;;5.00;99.90;;;;;;5004074;28;20573;-61
2023/12/31 02:29:10;;;;;;;5.53;2.72;;;5.00;99.90;;;;;;5001175;28;20129;-60
2023/12/31 02:31:36;;;;;;;6.55;3.00;;;5.00;99.90;;;;;;5006200;28;20025;-61
2023/12/31 02:34:02;;;;;;;5.03;2.42;;;4.90;99.90;;;;;;5007503;28;20491;-60
2023/12/31 02:36:28;;;;;;;8.65;2.67;;;5.00;99.90;;;;;;5018300;28;20057;-61
2023/12/31 02:38:53;;;;;;;7.53;2.72;;;5.00;99.90;;;;;;5004679;28;20108;-58
2023/12/31 02:41:19;;;;;;;6.15;2.55;;;5.00;99.90;;;;;;5002368;28;20030;-59
2023/12/31 02:43:44;;;;;;;6.28;2.50;;;5.00;99.90;;;;;;5000226;28;20088;-59
2023/12/31 02:46:10;;;;;;;8.70;3.40;;;5.00;99.90;;;;;;5005018;28;20076;-60
2023/12/31 02:48:35;;;;;;;6.28;3.15;;;5.00;99.90;;;;;;5003566;28;20038;-58
2023/12/31 02:51:01;;;;;;;3.28;2.83;;;5.00;99.90;;;;;;5004975;28;20021;-61
2023/12/31 02:53:27;;;;;;;4.63;2.47;;;5.00;99.90;;;;;;5004337;28;20053;-60
2023/12/31 02:55:52;;;;;;;7.60;2.33;;;5.00;99.90;;;;;;5004475;28;20710;-60
2023/12/31 02:58:18;;;;;;;9.18;3.28;;;5.00;99.90;;;;;;5003302;28;20025;-61
2023/12/31 03:00:43;;;;;;;6.93;2.78;;;5.00;99.90;;;;;;5002570;28;20034;-57
2023/12/31 03:03:09;;;;;;;6.25;2.30;;;5.00;99.90;;;;;;5004102;28;20042;-61
2023/12/31 03:05:34;;;;;;;7.28;2.17;;;5.10;99.90;;;;;;5005486;28;20535;-61
2023/12/31 03:08:00;;;;;;;4.88;2.42;;;5.00;99.90;;;;;;5004023;28;20018;-60
2023/12/31 03:10:27;;;;;;;4.85;2.13;;;5.00;99.90;;;;;;5000241;28;20137;-60
2023/12/31 03:12:52;;;;;;;4.15;2.10;;;5.10;99.90;;;;;;5001516;28;20037;-59
2023/12/31 03:15:19;;;;;;;2.85;2.08;;;5.10;99.90;;;;;;5001506;28;20018;-60
2023/12/31 03:17:45;;;;;;;3.38;2.05;;;5.10;99.90;;;;;;5001355;28;20037;-62
2023/12/31 03:20:11;;;;;;;6.25;2.45;;;5.10;99.90;;;;;;5005368;28;21380;-61
2023/12/31 03:22:36;;;;;;;5.95;1.70;;;5.10;99.90;;;;;;5003318;28;20120;-59
2023/12/31 03:25:02;;;;;;;3.15;1.95;;;5.10;99.90;;;;;;5003157;28;20930;-59
2023/12/31 03:27:27;;;;;;;3.38;2.22;;;5.20;99.90;;;;;;5004001;28;20030;-58
2023/12/31 03:29:53;;;;;;;3.95;1.63;;;5.20;99.90;;;;;;5002394;28;20043;-60
2023/12/31 03:32:19;;;;;;;3.63;2.10;;;5.20;99.90;;;;;;5000700;28;20109;-60
2023/12/31 03:34:44;;;;;;;8.23;1.90;;;5.20;99.90;;;;;;5003923;28;20113;-61
2023/12/31 03:37:10;;;;;;;3.80;1.73;;;5.30;99.90;;;;;;5002908;28;20056;-60
2023/12/31 03:39:35;;;;;;;4.45;1.70;;;5.30;99.90;;;;;;5001825;28;20104;-61
2023/12/31 03:42:01;;;;;;;5.63;1.73;;;5.20;99.90;;;;;;5007452;28;20386;-60
2023/12/31 03:44:27;;;;;;;2.17;1.65;;;5.30;99.90;;;;;;5002032;28;20053;-61
2023/12/31 03:46:52;;;;;;;5.00;1.52;;;5.30;99.90;;;;;;5007613;28;20033;-61
2023/12/31 03:49:18;;;;;;;5.75;1.58;;;5.30;99.90;;;;;;5003151;28;20060;-61
2023/12/31 03:51:43;;;;;;;4.57;1.73;;;5.30;99.90;;;;;;5001553;28;20026;-62
2023/12/31 03:54:09;;;;;;;4.53;1.73;;;5.30;99.90;;;;;;5003486;28;20058;-60
2023/12/31 03:56:34;;;;;;;3.33;1.30;;;5.30;99.90;;;;;;5003625;28;20069;-61
2023/12/31 03:59:00;;;;;;;7.53;2.15;;;5.30;99.90;;;;;;5005022;28;20053;-60
2023/12/31 04:01:25;;;;;;;4.15;1.77;;;5.40;99.90;;;;;;5003808;28;20041;-61
2023/12/31 04:03:51;;;;;;;3.88;1.60;;;5.40;99.90;;;;;;5003465;28;20446;-60
2023/12/31 04:06:16;;;;;;;1.30;1.20;;;5.40;99.90;;;;;;5004765;28;20037;-62
2023/12/31 04:08:42;;;;;;;3.22;1.48;;;5.40;99.90;;;;;;5002991;28;20034;-61
2023/12/31 04:11:07;;;;;;;3.65;1.70;;;5.40;99.90;;;;;;5001509;28;20096;-61
2023/12/31 04:13:33;;;;;;;2.45;1.90;;;5.40;99.90;;;;;;5005706;28;20044;-61
2023/12/31 04:15:59;;;;;;;2.75;1.50;;;5.40;99.90;;;;;;5000628;28;20033;-61
2023/12/31 04:18:24;;;;;;;2.53;1.88;;;5.40;99.90;;;;;;5003519;28;20065;-61
2023/12/31 04:20:50;;;;;;;2.42;1.45;;;5.50;99.90;;;;;;5001222;28;20036;-61
2023/12/31 04:23:15;;;;;;;3.15;1.65;;;5.50;99.90;;;;;;4996301;28;20026;-61
2023/12/31 04:25:41;;;;;;;2.60;1.63;;;5.50;99.90;;;;;;5003517;28;20038;-61
2023/12/31 04:28:07;;;;;;;4.25;1.70;;;5.40;99.90;;;;;;5003781;28;20087;-61
2023/12/31 04:30:32;;;;;;;3.90;1.67;;;5.50;99.90;;;;;;5003446;28;20149;-61
2023/12/31 04:32:58;;;;;;;1.83;1.50;;;5.50;99.90;;;;;;5003925;28;20025;-61
2023/12/31 04:35:23;;;;;;;2.60;1.70;;;5.40;99.90;;;;;;5002677;28;20543;-61
2023/12/31 04:37:49;;;;;;;4.85;1.55;;;5.40;99.90;;;;;;5003642;28;20445;-61
2023/12/31 04:40:15;;;;;;;5.90;1.50;;;5.40;99.90;;;;;;5001928;28;20025;-61
2023/12/31 04:42:40;;;;;;;2.17;1.75;;;5.50;99.90;;;;;;5004861;28;20030;-61
2023/12/31 04:45:09;;;;;;;4.72;1.65;;;5.40;99.90;;;;;;5001877;28;20505;-60
2023/12/31 04:47:37;;;;;;;3.10;1.63;;;5.40;99.90;;;;;;5004199;28;20064;-61
2023/12/31 04:50:04;;;;;;;5.60;1.50;;;5.50;99.90;;;;;;5002406;28;20128;-60
2023/12/31 04:52:30;;;;;;;2.17;1.70;;;5.50;99.90;;;;;;5003415;28;20113;-61
2023/12/31 04:54:55;;;;;;;5.30;1.70;;;5.50;99.90;;;;;;5001766;28;20184;-61
2023/12/31 04:57:21;;;;;;;6.30;1.48;;;5.50;99.90;;;;;;5003267;28;20521;-60
2023/12/31 04:59:46;;;;;;;5.13;1.55;;;5.50;99.90;;;;;;5003855;28;20557;-61
2023/12/31 05:02:12;;;;;;;5.80;2.00;;;5.50;99.90;;;;;;4998247;28;20185;-61
2023/12/31 05:04:40;;;;;;;4.65;2.00;;;5.50;99.90;;;;;;4993645;28;20041;-61
2023/12/31 05:07:08;;;;;;;2.95;1.52;;;5.50;99.90;;;;;;4999586;28;20501;-60
2023/12/31 05:09:33;;;;;;;4.95;1.50;;;5.50;99.90;;;;;;4999512;28;20061;-61
2023/12/31 05:11:59;;;;;;;3.55;1.48;;;5.50;99.90;;;;;;5001286;28;20057;-59
2023/12/31 05:14:24;;;;;;;6.35;1.92;;;5.50;99.90;;;;;;5005031;28;20041;-60
2023/12/31 05:16:50;;;;;;;4.88;1.83;;;5.50;99.90;;;;;;5001141;28;20038;-61
2023/12/31 05:19:15;;;;;;;7.90;2.03;;;5.40;99.90;;;;;;5000833;28;20033;-61
2023/12/31 05:21:41;;;;;;;1.92;1.63;;;5.50;99.90;;;;;;4998606;28;20437;-61
2023/12/31 05:24:07;;;;;;;2.63;1.80;;;5.50;99.90;;;;;;5000020;28;20034;-61
2023/12/31 05:26:32;;;;;;;5.22;2.05;;;5.50;99.90;;;;;;4996641;28;20030;-61
2023/12/31 05:28:58;;;;;;;2.00;1.67;;;5.50;99.90;;;;;;4999986;28;20487;-61
2023/12/31 05:31:24;;;;;;;2.38;1.30;;;5.50;99.90;;;;;;5001395;28;20026;-61
2023/12/31 05:33:49;;;;;;;2.42;1.17;;;5.40;99.90;;;;;;5000258;28;20032;-61
2023/12/31 05:36:15;;;;;;;2.50;1.27;;;5.50;99.90;;;;;;5004600;28;20036;-61
2023/12/31 05:38:40;;;;;;;2.95;1.88;;;5.50;99.90;;;;;;5002562;28;20026;-61
2023/12/31 05:41:06;;;;;;;4.95;1.73;;;5.50;99.90;;;;;;5001941;28;20087;-61
2023/12/31 05:43:31;;;;;;;3.20;1.48;;;5.40;99.90;;;;;;5002804;28;20113;-62
2023/12/31 05:45:57;;;;;;;2.10;1.63;;;5.50;99.90;;;;;;5001241;28;20022;-61
2023/12/31 05:48:23;;;;;;;3.05;1.70;;;5.50;99.90;;;;;;5000854;28;20030;-60
2023/12/31 05:50:49;;;;;;;5.53;1.83;;;5.50;99.90;;;;;;5004239;28;20053;-61
2023/12/31 05:53:14;;;;;;;2.90;1.30;;;5.50;99.90;;;;;;5002472;28;20034;-60
2023/12/31 05:55:41;;;;;;;5.20;1.63;;;5.50;99.90;;;;;;5004530;28;20026;-62
2023/12/31 05:58:06;;;;;;;1.95;1.60;;;5.50;99.90;;;;;;5004591;28;20026;-61
2023/12/31 06:00:32;;;;;;;3.15;1.45;;;5.50;99.90;;;;;;5003087;28;20060;-61
2023/12/31 06:02:57;;;;;;;2.42;1.52;;;5.50;99.90;;;;;;5001417;28;20096;-59
2023/12/31 06:05:23;;;;;;;2.88;1.70;;;5.50;99.90;;;;;;5001333;28;20037;-61
2023/12/31 06:07:48;;;;;;;4.30;1.63;;;5.50;99.90;;;;;;5003326;28;20125;-60
2023/12/31 06:10:14;;;;;;;3.80;1.65;;;5.50;99.90;;;;;;5004459;28;20077;-60
2023/12/31 06:12:39;;;;;;;3.67;1.52;;;5.50;99.90;;;;;;5004944;28;20101;-61
2023/12/31 06:15:09;;;;;;;5.30;1.38;;;5.50;99.90;;;;;;5004613;28;20505;-60
2023/12/31 06:17:35;;;;;;;3.05;1.85;;;5.50;99.90;;;;;;5003321;28;20398;-60
2023/12/31 06:20:02;;;;;;;4.32;1.50;;;5.50;99.90;;;;;;5005814;28;20075;-61
2023/12/31 06:22:28;;;;;;;2.25;1.38;;;5.50;99.90;;;;;;4998308;28;20026;-60
2023/12/31 06:24:53;;;;;;;2.88;1.55;;;5.50;99.90;;;;;;4999568;28;20602;-59
2023/12/31 06:27:19;;;;;;;3.55;1.35;;;5.50;99.90;;;;;;5000737;28;20030;-60
2023/12/31 06:29:44;;;;;;;5.43;1.67;;;5.50;99.90;;;;;;4998042;28;20395;-60
2023/12/31 06:32:10;;;;;;;3.10;1.52;;;5.40;99.90;;;;;;4999728;28;20022;-61
2023/12/31 06:34:36;;;;;;;5.15;1.77;;;5.40;99.90;;;;;;5000118;28;20037;-61
2023/12/31 06:37:01;;;;;;;6.13;1.95;;;5.40;99.90;;;;;;5002192;28;20406;-61
2023/12/31 06:39:27;;;;;;;5.13;1.58;;;5.40;99.90;;;;;;5002339;28;20058;-59
2023/12/31 06:41:52;;;;;;;2.30;1.50;;;5.40;99.90;;;;;;5001102;28;20026;-61
2023/12/31 06:44:18;;;;;;;6.57;1.90;;;5.40;99.90;;;;;;5005608;28;20039;-62
2023/12/31 06:46:43;;;;;;;3.13;1.55;;;5.40;99.90;;;;;;5004181;28;20029;-62
2023/12/31 06:49:09;;;;;;;3.13;1.35;;;5.40;99.90;;;;;;5007381;28;20152;-62
2023/12/31 06:51:34;;;;;;;2.97;1.70;;;5.40;99.90;;;;;;5005541;28;20049;-61
2023/12/31 06:54:00;;;;;;;5.20;1.85;;;5.40;99.90;;;;;;5005759;28;20033;-61
2023/12/31 06:56:25;;;;;;;3.35;1.27;;;5.40;99.90;;;;;;5004415;28;20038;-61
2023/12/31 06:58:51;;;;;;;3.60;2.13;;;5.40;99.90;;;;;;5002349;28;20509;-61
2023/12/31 07:01:16;;;;;;;5.40;1.60;;;5.40;99.90;;;;;;5007558;28;20521;-61
2023/12/31 07:03:43;;;;;;;3.17;1.60;;;5.40;99.90;;;;;;5004635;28;20065;-61
2023/12/31 07:06:08;;;;;;;5.15;1.63;;;5.30;99.90;;;;;;5003809;28;20030;-61
2023/12/31 07:08:34;;;;;;;5.85;2.03;;;5.30;99.90;;;;;;5002603;28;20222;-61
2023/12/31 07:11:00;;;;;;;6.70;2.10;;;5.30;99.90;;;;;;5004436;28;20030;-61
2023/12/31 07:13:26;;;;;;;2.13;1.63;;;5.30;99.90;;;;;;5003148;28;20035;-61
2023/12/31 07:15:51;;;;;;;2.95;1.40;;;5.30;99.90;;;;;;5005830;28;20041;-62
2023/12/31 07:18:17;;;;;;;4.57;1.98;;;5.30;99.90;;;;;;5003085;28;20045;-60
2023/12/31 07:20:42;;;;;;;3.22;1.63;;;5.30;99.90;;;;;;5005902;28;20092;-62
2023/12/31 07:23:08;;;;;;;4.55;1.58;;;5.30;99.90;;;;;;5003300;28;20033;-61
2023/12/31 07:25:33;;;;;;;3.92;1.77;;;5.30;99.90;;;;;;5001065;28;20062;-61
2023/12/31 07:27:59;;;;;;;2.53;1.60;;;5.30;99.90;;;;;;5006834;28;20029;-61
2023/12/31 07:30:25;;;;;;;5.85;1.70;;;5.30;99.90;;;;;;5005721;28;20049;-61
2023/12/31 07:32:51;;;;;;;9.27;2.35;;;5.30;99.90;;;;;;5006398;28;20022;-62
2023/12/31 07:35:16;;;;;;;3.47;1.67;;;5.30;99.90;;;;;;5004659;28;20037;-62
2023/12/31 07:37:42;;;;;;;2.90;1.60;;;5.30;99.90;;;;;;5002228;28;20026;-62
2023/12/31 07:40:09;;;;;;;3.83;1.60;;;5.30;99.90;;;;;;5005030;28;20080;-62
2023/12/31 07:42:35;;;;;;;2.05;1.40;;;5.30;99.90;;;;;;5002051;28;20041;-61
2023/12/31 07:45:01;;;;;;;4.78;1.88;;;5.20;99.90;;;;;;5005032;28;20040;-62
2023/12/31 07:47:27;;;;;;;5.22;1.58;;;5.30;99.90;;;;;;5003057;28;20133;-61
2023/12/31 07:49:52;;;;;;;2.60;2.10;;;5.30;99.90;;;;;;5000915;28;20757;-61
2023/12/31 07:52:18;;;;;;;5.60;2.10;;;5.20;99.90;;;;;;5000148;28;20430;-61
2023/12/31 07:54:44;;;;;;;2.92;1.67;;;5.20;99.90;;;;;;5001333;28;20022;-60
2023/12/31 07:57:09;;;;;;;6.40;2.00;;;5.20;99.90;;;;;;5003623;28;20064;-60
2023/12/31 07:59:35;;;;;;;4.45;2.13;;;5.20;99.90;;;;;;4998870;28;20069;-60
2023/12/31 08:02:02;;;;;;;2.50;1.52;;;5.20;99.90;;;;;;5004656;28;20033;-60
2023/12/31 08:04:28;;;;;;;1.48;1.38;;;5.20;99.90;;;;;;5004355;28;20084;-60
2023/12/31 08:06:54;;;;;;;2.42;1.50;;;5.20;99.90;;;;;;5002519;28;20446;-61
2023/12/31 08:09:20;;;;;;;4.25;1.73;;;5.20;99.90;;;;;;5001501;28;20026;-61
2023/12/31 08:11:45;;;;;;;4.80;1.83;;;5.20;99.90;;;;;;5002795;28;20026;-60
2023/12/31 08:14:11;;;;;;;3.45;1.70;;;5.20;99.90;;;;;;5004035;28;20030;-60
2023/12/31 08:16:36;;;;;;;3.03;1.10;;;5.20;99.90;;;;;;5005227;28;20117;-60
2023/12/31 08:19:03;;;;;;;4.72;1.98;;;5.10;99.90;;;;;;5003491;28;20164;-59
2023/12/31 08:21:29;;;;;;;2.33;1.85;;;5.20;99.90;;;;;;5001285;28;20026;-59
2023/12/31 08:23:55;;;;;;;4.53;2.33;;;5.20;99.90;;;;;;5000019;28;20033;-62
2023/12/31 08:26:20;;;;;;;5.55;2.38;;;5.20;99.90;;;;;;5000685;28;20124;-60
2023/12/31 08:28:46;;;;;;;4.13;2.15;;;5.10;99.90;;;;;;5001533;28;20018;-60
2023/12/31 08:31:13;;;;;;;6.03;2.00;;;5.20;99.90;;;;;;5007615;28;20026;-61
2023/12/31 08:33:39;;;;;;;2.50;1.58;;;5.10;99.90;;;;;;5005354;28;20032;-62
2023/12/31 08:36:04;;;;;;;5.50;1.95;;;5.10;99.90;;;;;;4999526;28;20244;-61
2023/12/31 08:38:30;;;;;;;3.22;1.90;;;5.20;99.90;;;;;;5002377;28;20087;-60
2023/12/31 08:40:55;;;;;;;4.20;1.73;;;5.10;99.90;;;;;;4999847;28;20566;-61
2023/12/31 08:43:21;;;;;;;3.65;1.90;;;5.10;99.90;;;;;;5005183;28;20611;-60
2023/12/31 08:45:46;;;;;;;3.05;1.63;;;5.20;99.90;;;;;;5002650;28;20030;-59
2023/12/31 08:48:12;;;;;;;2.55;1.67;;;5.20;99.90;;;;;;4999479;28;20022;-60
2023/12/31 08:50:38;;;;;;;6.05;2.15;;;5.20;99.90;;;;;;4999849;28;20018;-60
2023/12/31 08:53:03;;;;;;;2.28;1.85;;;5.20;99.90;;;;;;5002949;28;20128;-62
2023/12/31 08:55:29;;;;;;;2.15;1.83;;;5.20;99.90;;;;;;5007938;28;20026;-59
2023/12/31 08:57:54;;;;;;;3.25;1.95;;;5.30;99.90;;;;;;5006396;28;20108;-61
2023/12/31 09:00:20;;;;;;;4.03;1.95;;;5.30;99.90;;;;;;5002376;28;20030;-61
2023/12/31 09:02:47;;;;;;;2.25;1.88;;;5.30;99.90;;;;;;4999372;28;20030;-58
2023/12/31 09:05:13;;;;;;;5.82;2.42;;;5.30;99.90;;;;;;5004138;28;20078;-60
2023/12/31 09:07:41;;;;;;;4.65;1.70;;;5.30;99.90;;;;;;4999394;28;20540;-61
2023/12/31 09:10:07;;;;;;;1.95;1.65;;;5.40;99.90;;;;;;5001141;28;20056;-60
2023/12/31 09:12:33;;;;;;;3.22;1.65;;;5.30;99.90;;;;;;5002653;28;20081;-61
2023/12/31 09:14:59;;;;;;;3.13;1.83;;;5.30;99.90;;;;;;5003846;28;20107;-61
2023/12/31 09:17:24;;;;;;;5.15;2.22;;;5.40;99.90;;;;;;5004020;28;20033;-60
2023/12/31 09:19:53;;;;;;;7.10;1.98;;;5.40;99.90;;;;;;4999204;28;20172;-59
2023/12/31 09:22:18;;;;;;;3.85;1.98;;;5.40;99.90;;;;;;5001931;28;20030;-61
2023/12/31 09:24:45;;;;;;;4.72;2.05;;;5.50;99.90;;;;;;5010667;28;20022;-61
2023/12/31 09:27:10;;;;;;;4.28;2.42;;;5.50;99.90;;;;;;5003294;28;20022;-61
2023/12/31 09:29:36;;;;;;;5.40;2.50;;;5.50;99.90;;;;;;5004594;28;20164;-62
2023/12/31 09:32:03;;;;;;;2.08;1.50;;;5.50;99.90;;;;;;5001381;28;20098;-61
2023/12/31 09:34:29;;;;;;;2.63;2.15;;;5.60;99.90;;;;;;5001184;28;20021;-62
2023/12/31 09:36:54;;;;;;;2.50;1.70;;;5.60;99.90;;;;;;4997511;28;20022;-60
2023/12/31 09:39:20;;;;;;;4.15;1.80;;;5.60;99.90;;;;;;4997206;28;20030;-61
2023/12/31 09:41:49;;;;;;;4.32;2.08;;;5.70;99.90;;;;;;4997971;28;20022;-61
2023/12/31 09:44:18;;;;;;;5.45;2.20;;;5.60;99.90;;;;;;5016055;28;20033;-61
2023/12/31 09:47:09;;;;;;;4.10;1.95;;;5.70;99.90;;;;;;4999241;28;20026;-60
2023/12/31 09:49:36;;;;;;;3.10;1.80;;;5.70;99.90;;;;;;4995999;28;20104;-61
2023/12/31 09:52:03;;;;;;;4.18;2.10;;;5.70;99.90;;;;;;5003172;28;20029;-60
2023/12/31 09:54:34;;;;;;;3.72;1.85;;;5.80;99.90;;;;;;5001424;28;20032;-61
2023/12/31 09:57:01;;;;;;;3.25;2.33;;;5.70;99.90;;;;;;5006604;28;20057;-61
2023/12/31 09:59:30;;;;;;;3.53;2.22;;;5.80;99.90;;;;;;4998945;28;20035;-60
2023/12/31 10:02:02;;;;;;;4.40;2.13;;;5.80;99.90;;;;;;5002387;28;20045;-61
2023/12/31 10:04:28;;;;;;;3.70;1.80;;;5.80;99.90;;;;;;5000850;28;20033;-59
2023/12/31 10:06:55;;;;;;;4.97;2.17;;;5.80;99.90;;;;;;5000341;28;20030;-61
2023/12/31 10:09:23;;;;;;;3.85;1.60;;;5.80;99.90;;;;;;4995927;28;20101;-60
2023/12/31 10:11:49;;;;;;;3.80;1.40;;;5.80;99.90;;;;;;5000145;28;20396;-62
2023/12/31 10:14:15;;;;;;;2.70;1.73;;;5.80;99.90;;;;;;5004505;28;20033;-62
2023/12/31 10:16:43;;;;;;;5.60;1.98;;;5.80;99.90;;;;;;4999155;28;20105;-61
2023/12/31 10:19:12;;;;;;;2.47;1.70;;;5.90;99.90;;;;;;5003475;28;20556;-61
2023/12/31 10:21:38;;;;;;;4.00;2.17;;;5.90;99.90;;;;;;5006433;28;20113;-59
2023/12/31 10:24:04;;;;;;;4.07;1.45;;;5.90;99.90;;;;;;5006083;28;20033;-61
2023/12/31 10:26:30;;;;;;;3.00;1.55;;;5.90;99.90;;;;;;5001967;28;20096;-61
2023/12/31 10:28:55;;;;;;;1.60;1.50;;;5.90;99.90;;;;;;5002873;28;20085;-62
2023/12/31 10:31:21;;;;;;;5.60;1.88;;;5.90;99.90;;;;;;5006829;28;20022;-61
2023/12/31 10:33:47;;;;;;;2.45;1.77;;;6.00;99.90;;;;;;5006320;28;20109;-60
2023/12/31 10:36:13;;;;;;;3.42;1.63;;;5.90;99.90;;;;;;5003967;28;20105;-61
2023/12/31 10:38:46;;;;;;;3.13;1.42;;;6.00;99.90;;;;;;5005831;28;20289;-61
2023/12/31 10:41:17;;;;;;;4.43;2.30;;;6.00;99.90;;;;;;5010996;28;20034;-61
2023/12/31 10:43:45;;;;;;;3.08;1.58;;;6.00;99.90;;;;;;5002732;28;20055;-62
2023/12/31 10:46:18;;;;;;;3.33;1.70;;;6.00;99.90;;;;;;5004998;28;20080;-62
2023/12/31 10:49:05;;;;;;;2.63;2.03;;;6.00;99.90;;;;;;5001542;28;20057;-61
2023/12/31 10:51:35;;;;;;;8.25;3.67;;;6.10;99.90;;;;;;5003336;28;20037;-62
2023/12/31 10:54:05;;;;;;;2.75;1.85;;;6.10;99.90;;;;;;5004660;28;20045;-61
2023/12/31 10:56:32;;;;;;;8.82;3.25;;;6.10;99.90;;;;;;5005955;28;20555;-61
2023/12/31 10:58:58;;;;;;;4.20;2.65;;;6.10;99.90;;;;;;5002585;28;20105;-60
2023/12/31 11:01:27;;;;;;;2.05;1.50;;;6.20;99.90;;;;;;5007656;28;20029;-61
2023/12/31 11:03:53;;;;;;;2.97;2.22;;;6.20;99.90;;;;;;5001253;28;20062;-61
2023/12/31 11:06:19;;;;;;;3.40;2.25;;;6.20;99.90;;;;;;5009030;28;20469;-61
2023/12/31 11:08:46;;;;;;;4.50;1.58;;;6.20;99.90;;;;;;5029825;22;20141;-53
2023/12/31 11:11:14;;;;;;;3.88;1.50;;;6.20;99.90;;;;;;4999913;28;20034;-57
2023/12/31 11:13:41;;;;;;;4.80;1.95;;;6.20;99.90;;;;;;5006585;28;20025;-53
2023/12/31 11:16:32;;;;;;;2.95;1.90;;;6.20;99.90;;;;;;5006801;28;20022;-55
2023/12/31 11:19:26;;;;;;;2.53;1.65;;;6.20;99.90;;;;;;5007166;28;20351;-55
2023/12/31 11:22:13;;;;;;;3.35;1.80;;;6.20;99.90;;;;;;5002436;28;20593;-58
2023/12/31 11:24:39;;;;;;;2.72;2.13;;;6.20;99.90;;;;;;5007136;28;20483;-53
2023/12/31 11:27:17;;;;;;;2.97;2.08;;;6.20;99.90;;;;;;5003801;28;20033;-57
2023/12/31 11:29:49;;;;;;;4.68;1.88;;;6.30;99.90;;;;;;5002952;28;20058;-54
2023/12/31 11:32:19;;;;;;;2.85;1.90;;;6.30;99.90;;;;;;5002777;28;20704;-56
2023/12/31 11:34:51;;;;;;;3.95;1.75;;;6.30;99.90;;;;;;5004461;28;20386;-51
2023/12/31 11:37:16;;;;;;;2.50;1.58;;;6.30;99.90;;;;;;5003277;28;20029;-54
2023/12/31 11:40:04;;;;;;;2.10;1.95;;;6.30;99.90;;;;;;5003465;28;20038;-55
2023/12/31 11:42:30;;;;;;;1.52;1.40;;;6.40;99.90;;;;;;5002400;28;20080;-56
2023/12/31 11:44:57;;;;;;;2.72;1.75;;;6.40;99.90;;;;;;5003653;28;20034;-53
2023/12/31 11:47:29;;;;;;;3.08;1.90;;;6.40;99.90;;;;;;5005006;28;20041;-53
2023/12/31 11:50:19;;;;;;;3.90;1.73;;;6.40;99.90;;;;;;5004671;28;20486;-51
2023/12/31 11:52:48;;;;;;;3.97;1.80;;;6.40;99.90;;;;;;5003394;28;20148;-53
2023/12/31 11:55:17;;;;;;;3.28;1.52;;;6.40;99.90;;;;;;5002601;28;20022;-52
2023/12/31 11:57:50;;;;;;;1.75;1.58;;;6.40;99.90;;;;;;5000648;28;20109;-54
2023/12/31 12:00:16;;;;;;;4.15;2.00;;;6.50;99.90;;;;;;5002057;28;20053;-51
2023/12/31 12:02:41;;;;;;;4.53;1.90;;;6.50;99.90;;;;;;5002046;28;20691;-52
2023/12/31 12:05:07;;;;;;;2.03;1.73;;;6.50;99.90;;;;;;5003692;28;20410;-52
2023/12/31 12:07:32;;;;;;;3.38;2.10;;;6.50;99.90;;;;;;5003471;28;20034;-56
2023/12/31 12:09:59;;;;;;;2.75;1.80;;;6.50;99.90;;;;;;5007619;28;20037;-51
2023/12/31 12:12:25;;;;;;;4.50;2.13;;;6.60;99.90;;;;;;5003094;28;20037;-53
2023/12/31 12:14:50;;;;;;;3.17;1.65;;;6.60;99.90;;;;;;5004217;28;20025;-53
2023/12/31 12:17:16;;;;;;;3.22;1.55;;;6.70;99.90;;;;;;5002880;28;20029;-51
2023/12/31 12:19:42;;;;;;;2.60;1.85;;;6.70;99.90;;;;;;5003163;28;20104;-55
2023/12/31 12:22:08;;;;;;;3.78;2.20;;;6.80;99.90;;;;;;5003694;28;20435;-51
2023/12/31 12:24:34;;;;;;;2.67;1.80;;;6.80;99.90;;;;;;5000329;28;20041;-53
2023/12/31 12:27:01;;;;;;;3.30;1.80;;;6.80;99.90;;;;;;4999004;28;20080;-55
2023/12/31 12:29:27;;;;;;;3.13;1.88;;;6.90;99.90;;;;;;5001777;28;20034;-51
2023/12/31 12:31:53;;;;;;;2.42;2.00;;;6.90;99.90;;;;;;5000944;28;20048;-56
2023/12/31 12:34:19;;;;;;;3.78;1.70;;;7.00;99.90;;;;;;5005382;28;20018;-56
2023/12/31 12:36:46;;;;;;;2.22;1.67;;;6.90;99.90;;;;;;5003324;28;20041;-52
2023/12/31 12:39:22;;;;;;;1.70;1.30;;;7.00;99.90;;;;;;5003178;28;20029;-55
2023/12/31 12:41:50;;;;;;;2.85;1.80;;;6.90;99.90;;;;;;5002276;28;20121;-56
2023/12/31 12:44:17;;;;;;;2.80;1.27;;;6.90;99.90;;;;;;5003690;28;20703;-53
2023/12/31 12:46:45;;;;;;;2.78;1.95;;;6.90;99.90;;;;;;5002149;28;20160;-55
2023/12/31 12:49:11;;;;;;;2.17;1.73;;;7.00;99.90;;;;;;5002427;28;20029;-55
2023/12/31 12:51:37;;;;;;;2.17;1.83;;;7.00;99.90;;;;;;5003763;28;20507;-53
2023/12/31 12:54:05;;;;;;;3.10;1.50;;;7.00;99.90;;;;;;5004325;28;20030;-57